Time;durP1;ratioP1;P1;durP2;ratioP2;P2;SDS_P1;SDS_P2;PMS_P1;PMS_P2;Temp;Humidity;BMP_temperature;BMP_pressure;BME280_temperature;BME280_humidity;BME280_pressure;Samples;Min_cycle;Max_cycle;Signal;HPM_P1;HPM_P2
2024/02/06 00:01:01;;;;;;;;;16.33;15.33;;;;;9.76;70.64;102260.16;2036559;27;1823780;-74
2024/02/06 00:02:12;;;;;;;;;16.00;15.33;;;;;9.73;70.53;102257.53;2008523;27;2805496;-74
2024/02/06 00:03:26;;;;;;;;;16.83;14.00;;;;;9.73;70.40;102251.44;2062284;27;1829452;-74
2024/02/06 00:04:36;;;;;;;;;18.00;15.00;;;;;9.73;70.86;102256.69;2003603;27;2797146;-74
2024/02/06 00:05:47;;;;;;;;;16.00;12.33;;;;;9.72;70.48;102247.06;2027788;27;1844156;-74
2024/02/06 00:06:58;;;;;;;;;15.00;14.00;;;;;9.72;70.93;102247.94;2002045;27;2811677;-74
2024/02/06 00:08:09;;;;;;;;;14.50;12.75;;;;;9.74;70.81;102250.53;2038892;27;1819088;-74
2024/02/06 00:09:20;;;;;;;;;16.50;14.50;;;;;9.74;70.64;102248.78;1997483;27;2795054;-74
2024/02/06 00:10:30;;;;;;;;;16.50;13.50;;;;;9.75;70.82;102241.78;1985622;28;2803404;-74
2024/02/06 00:11:41;;;;;;;;;16.00;14.50;;;;;9.74;70.86;102237.41;2017874;27;2806584;-74
2024/02/06 00:12:54;;;;;;;;;18.17;15.50;;;;;9.74;70.72;102242.66;2036080;27;2810632;-74
2024/02/06 00:14:10;;;;;;;;;23.00;17.50;;;;;9.74;70.73;102240.03;2024906;27;2828410;-74
2024/02/06 00:15:20;;;;;;;;;18.50;16.00;;;;;9.75;70.90;102239.16;2007209;27;2827341;-74
2024/02/06 00:16:32;;;;;;;;;16.33;13.00;;;;;9.74;70.71;102240.91;2016877;27;2803427;-74
2024/02/06 00:17:44;;;;;;;;;18.00;15.20;;;;;9.75;70.75;102233.91;2042779;27;2808556;-74
2024/02/06 00:18:55;;;;;;;;;22.75;18.75;;;;;9.75;70.71;102236.53;2024613;28;1831533;-74
2024/02/06 00:20:07;;;;;;;;;19.00;15.50;;;;;9.73;70.97;102239.16;1992023;28;2819063;-74
2024/02/06 00:21:17;;;;;;;;;18.00;14.50;;;;;9.74;70.96;102232.16;1992083;27;2814841;-74
2024/02/06 00:22:28;;;;;;;;;17.00;14.50;;;;;9.74;70.67;102232.16;2010733;28;2809598;-74
2024/02/06 00:23:40;;;;;;;;;20.00;15.00;;;;;9.74;70.87;102234.78;2016629;27;2808951;-74
2024/02/06 00:24:50;;;;;;;;;17.00;15.00;;;;;9.74;70.97;102229.53;2011886;27;2805446;-74
2024/02/06 00:26:01;;;;;;;;;21.50;14.50;;;;;9.75;70.91;102231.28;2003578;28;2833612;-74
2024/02/06 00:27:12;;;;;;;;;16.50;15.75;;;;;9.75;70.81;102226.03;2020182;28;1831566;-74
2024/02/06 00:28:24;;;;;;;;;23.00;19.00;;;;;9.76;70.58;102225.13;1991752;28;3563762;-74
2024/02/06 00:29:35;;;;;;;;;17.50;16.50;;;;;9.75;70.93;102231.28;2013152;27;2813856;-74
2024/02/06 00:30:46;;;;;;;;;17.00;14.50;;;;;9.76;70.88;102233.91;2020757;27;2808563;-74
2024/02/06 00:31:58;;;;;;;;;17.80;15.00;;;;;9.77;70.92;102234.78;2027942;28;1831667;-74
2024/02/06 00:33:09;;;;;;;;;21.00;15.00;;;;;9.77;70.76;102238.28;2024002;28;2823181;-74
2024/02/06 00:34:20;;;;;;;;;20.00;17.00;;;;;9.77;70.84;102237.41;2017781;27;2820010;-74
2024/02/06 00:35:31;;;;;;;;;14.60;13.60;;;;;9.77;70.92;102238.28;2030634;28;1821120;-74
2024/02/06 00:36:44;;;;;;;;;18.80;17.60;;;;;9.78;71.04;102234.75;2051273;27;2829393;-74
2024/02/06 00:37:59;;;;;;;;;21.00;17.67;;;;;9.79;70.95;102238.25;2001119;27;3569352;-74
2024/02/06 00:39:09;;;;;;;;;19.00;15.00;;;;;9.80;71.02;102232.13;2024169;27;2817287;-74
2024/02/06 00:40:20;;;;;;;;;18.00;15.00;;;;;9.79;70.93;102233.00;2021661;27;2830435;-74
2024/02/06 00:41:31;;;;;;;;;15.50;15.50;;;;;9.78;71.06;102233.88;2015561;28;2810707;-74
2024/02/06 00:42:43;;;;;;;;;24.00;18.00;;;;;9.77;70.82;102226.91;2010093;27;2820110;-74
2024/02/06 00:43:56;;;;;;;;;17.60;15.00;;;;;9.76;70.93;102226.03;2028419;27;2816908;-74
2024/02/06 00:45:08;;;;;;;;;15.00;15.00;;;;;9.78;71.17;102223.38;2017619;28;2813829;-74
2024/02/06 00:46:18;;;;;;;;;18.00;15.50;;;;;9.77;71.06;102211.13;2001536;28;2815880;-74
2024/02/06 00:47:31;;;;;;;;;21.17;17.50;;;;;9.77;71.23;102208.50;2031900;27;2817982;-74
2024/02/06 00:48:45;;;;;;;;;17.00;16.00;;;;;9.77;70.80;102214.66;2021743;28;1830534;-74
2024/02/06 00:49:55;;;;;;;;;16.00;15.50;;;;;9.77;71.23;102208.50;1997373;27;2818471;-74
2024/02/06 00:51:08;;;;;;;;;18.00;16.33;;;;;9.77;70.97;102209.41;2008509;28;3555406;-74
2024/02/06 00:52:21;;;;;;;;;23.00;16.67;;;;;9.77;70.91;102211.13;2015498;28;3581902;-74
2024/02/06 00:53:32;;;;;;;;;20.33;17.00;;;;;9.76;70.89;102198.88;2027754;27;3550233;-74
2024/02/06 00:54:44;;;;;;;;;19.33;16.67;;;;;9.76;70.90;102198.88;2039935;28;2828459;-74
2024/02/06 00:55:57;;;;;;;;;19.50;17.33;;;;;9.76;70.99;102198.88;2050502;28;1837794;-74
2024/02/06 00:57:09;;;;;;;;;20.67;17.67;;;;;9.76;71.17;102204.13;2001292;27;3560656;-74
2024/02/06 00:58:20;;;;;;;;;21.67;18.67;;;;;9.76;71.37;102204.13;2037776;27;3559600;-74
2024/02/06 00:59:32;;;;;;;;;18.75;13.50;;;;;9.76;71.21;102209.38;2050451;28;1831597;-74
2024/02/06 01:00:42;;;;;;;;;21.00;16.50;;;;;9.75;71.03;102205.03;2001611;27;2826395;-74
2024/02/06 01:01:54;;;;;;;;;26.33;18.00;;;;;9.77;71.42;102201.53;2005800;28;3597095;-74
2024/02/06 01:03:06;;;;;;;;;19.33;17.00;;;;;9.77;71.32;102193.63;2001732;28;2836802;-74
2024/02/06 01:04:18;;;;;;;;;20.80;19.20;;;;;9.77;71.66;102190.13;2032532;28;2839816;-74
2024/02/06 01:05:30;;;;;;;;;17.67;16.33;;;;;9.79;71.31;102191.00;2008673;28;2824205;-74
2024/02/06 01:06:41;;;;;;;;;17.00;17.00;;;;;9.80;71.38;102200.63;2023794;27;2823308;-74
2024/02/06 01:07:53;;;;;;;;;22.33;18.67;;;;;9.80;71.29;102190.13;2024412;27;2824314;-74
2024/02/06 01:09:05;;;;;;;;;20.40;17.80;;;;;9.81;70.95;102196.22;2038003;28;2814795;-74
2024/02/06 01:10:17;;;;;;;;;17.00;16.67;;;;;9.81;70.86;102190.97;2009787;28;3555420;-74
2024/02/06 01:11:30;;;;;;;;;22.00;19.00;;;;;9.81;71.18;102177.84;2041522;27;3577304;-74
2024/02/06 01:12:41;;;;;;;;;22.00;16.00;;;;;9.81;71.23;102183.09;2024386;27;3560122;-74
2024/02/06 01:13:52;;;;;;;;;16.00;15.50;;;;;9.82;71.62;102183.09;2051634;27;1818056;-74
2024/02/06 01:15:04;;;;;;;;;21.33;20.67;;;;;9.82;71.19;102179.59;1992424;27;3581502;-74
2024/02/06 01:16:15;;;;;;;;;20.00;19.00;;;;;9.82;71.22;102184.84;2016258;28;3560668;-74
2024/02/06 01:17:27;;;;;;;;;21.33;18.33;;;;;9.80;71.31;102182.25;2032609;28;3558562;-74
2024/02/06 01:18:40;;;;;;;;;22.17;20.50;;;;;9.81;71.28;102191.84;2049981;28;2839862;-74
2024/02/06 01:19:52;;;;;;;;;20.50;18.00;;;;;9.81;71.37;102196.22;2027097;28;1831536;-74
2024/02/06 01:21:05;;;;;;;;;21.17;16.83;;;;;9.79;71.40;102186.63;2029404;28;1835714;-74
2024/02/06 01:22:16;;;;;;;;;21.33;19.33;;;;;9.80;71.50;102179.63;2000808;28;3568966;-74
2024/02/06 01:23:29;;;;;;;;;23.83;18.50;;;;;9.79;71.11;102175.25;2048364;28;2835627;-74
2024/02/06 01:24:40;;;;;;;;;20.00;17.00;;;;;9.80;71.38;102177.00;2017349;27;2838140;-74
2024/02/06 01:25:53;;;;;;;;;20.83;20.17;;;;;9.80;71.38;102177.00;2040123;27;2841952;-74
2024/02/06 01:27:05;;;;;;;;;24.00;20.00;;;;;9.80;71.44;102187.50;2010722;28;3580437;-74
2024/02/06 01:28:18;;;;;;;;;22.00;19.33;;;;;9.80;71.60;102171.75;2050889;28;2848166;-74
2024/02/06 01:29:29;;;;;;;;;26.25;21.75;;;;;9.80;71.44;102163.88;2019272;28;1838839;-74
2024/02/06 01:30:40;;;;;;;;;31.00;22.50;;;;;9.81;71.25;102170.84;2004675;27;2841935;-74
2024/02/06 01:31:52;;;;;;;;;23.67;21.33;;;;;9.81;71.32;102170.84;2047717;27;3581609;-74
2024/02/06 01:33:04;;;;;;;;;22.80;18.80;;;;;9.82;71.44;102171.72;2050175;28;1825287;-74
2024/02/06 01:34:15;;;;;;;;;26.33;23.33;;;;;9.83;71.02;102181.34;2023089;27;3592981;-74
2024/02/06 01:35:27;;;;;;;;;23.33;16.33;;;;;9.82;71.29;102169.09;2025365;28;3580434;-74
2024/02/06 01:36:39;;;;;;;;;23.00;20.00;;;;;9.82;71.32;102164.72;2014230;27;3590425;-74
2024/02/06 01:37:51;;;;;;;;;18.60;17.80;;;;;9.82;71.37;102162.09;2041380;27;3565329;-74
2024/02/06 01:39:03;;;;;;;;;22.33;21.67;;;;;9.82;71.36;102171.72;2036178;28;3588789;-74
2024/02/06 01:40:16;;;;;;;;;23.00;21.00;;;;;9.80;71.22;102156.00;2002874;27;3578389;-74
2024/02/06 01:41:29;;;;;;;;;21.60;19.40;;;;;9.79;71.35;102152.47;2034806;28;2834597;-74
2024/02/06 01:42:41;;;;;;;;;20.67;19.00;;;;;9.80;71.46;102148.09;2010560;28;3572107;-74
2024/02/06 01:43:53;;;;;;;;;21.00;17.20;;;;;9.81;71.64;102154.22;2044792;28;3570097;-74
2024/02/06 01:45:05;;;;;;;;;19.00;17.67;;;;;9.81;71.25;102148.97;2022940;27;3566947;-74
2024/02/06 01:46:16;;;;;;;;;21.00;17.50;;;;;9.81;71.63;102151.59;2021922;27;2828418;-74
2024/02/06 01:47:28;;;;;;;;;21.67;18.67;;;;;9.81;71.54;102149.84;2032581;27;3580433;-75
2024/02/06 01:48:40;;;;;;;;;19.67;19.67;;;;;9.82;71.29;102146.34;2025686;28;3565857;-74
2024/02/06 01:49:51;;;;;;;;;20.67;17.67;;;;;9.81;71.61;102147.22;2019662;28;3546094;-74
2024/02/06 01:51:06;;;;;;;;;25.00;23.20;;;;;9.83;71.56;102136.72;2044099;27;3591872;-74
2024/02/06 01:52:17;;;;;;;;;23.33;19.33;;;;;9.82;71.32;102140.22;2005115;27;3564753;-74
2024/02/06 01:53:30;;;;;;;;;28.33;23.00;;;;;9.83;71.56;102141.97;2029233;27;3597098;-74
2024/02/06 01:54:41;;;;;;;;;26.33;22.00;;;;;9.81;71.49;102139.34;2015330;28;3591949;-74
2024/02/06 01:55:53;;;;;;;;;27.00;21.67;;;;;9.83;71.66;102147.22;2009282;27;3597114;-74
2024/02/06 01:57:06;;;;;;;;;21.33;21.33;;;;;9.81;71.51;102147.22;2019864;27;3579426;-74
2024/02/06 01:58:18;;;;;;;;;23.33;19.00;;;;;9.83;71.64;102142.81;2022764;27;3575212;-74
2024/02/06 01:59:29;;;;;;;;;29.80;22.00;;;;;9.82;71.70;102143.72;2033296;28;3605429;-74
2024/02/06 02:00:42;;;;;;;;;24.33;18.33;;;;;9.84;71.31;102151.56;2000783;28;3583626;-74
2024/02/06 02:01:55;;;;;;;;;22.00;19.67;;;;;9.84;71.95;102146.31;2016847;28;3583952;-74
2024/02/06 02:03:08;;;;;;;;;21.50;21.00;;;;;9.84;71.57;102148.94;2018301;28;2833631;-74
2024/02/06 02:04:19;;;;;;;;;25.33;23.67;;;;;9.84;71.34;102149.81;1992617;28;3578373;-74
2024/02/06 02:05:31;;;;;;;;;29.00;21.60;;;;;9.84;71.76;102147.19;2044298;27;3586167;-74
2024/02/06 02:06:43;;;;;;;;;25.67;22.33;;;;;9.85;71.66;102142.81;2001099;28;3585660;-74
2024/02/06 02:07:55;;;;;;;;;25.40;21.80;;;;;9.85;71.61;102145.44;2035632;27;3581545;-74
2024/02/06 02:09:08;;;;;;;;;20.00;17.00;;;;;9.84;71.48;102134.06;2009057;28;2826352;-74
2024/02/06 02:10:19;;;;;;;;;26.00;20.00;;;;;9.84;71.64;102134.06;2026027;27;2845067;-74
2024/02/06 02:11:31;;;;;;;;;29.00;22.33;;;;;9.84;71.74;102130.56;2016137;27;3594976;-74
2024/02/06 02:12:43;;;;;;;;;25.40;25.00;;;;;9.84;71.80;102136.69;2012614;27;3578333;-74
2024/02/06 02:13:55;;;;;;;;;27.00;21.00;;;;;9.85;71.51;102138.41;2009874;27;3594999;-74
2024/02/06 02:15:08;;;;;;;;;22.60;21.20;;;;;9.84;71.56;102136.69;2018944;27;3578384;-73
2024/02/06 02:16:22;;;;;;;;;27.00;23.67;;;;;9.83;71.67;102137.56;2001097;27;3593976;-74
2024/02/06 02:17:33;;;;;;;;;27.00;21.67;;;;;9.82;71.81;102133.22;2019103;28;3580479;-74
2024/02/06 02:18:45;;;;;;;;;29.67;25.33;;;;;9.81;71.58;102131.44;2040629;27;3597492;-73
2024/02/06 02:19:57;;;;;;;;;26.33;22.33;;;;;9.82;71.70;102138.47;2039309;27;3586697;-74
2024/02/06 02:21:10;;;;;;;;;26.33;21.67;;;;;9.82;71.69;102130.59;2046894;27;3583561;-74
2024/02/06 02:22:21;;;;;;;;;31.33;23.00;;;;;9.83;71.91;102123.59;2023676;28;3593977;-74
2024/02/06 02:23:33;;;;;;;;;27.60;21.00;;;;;9.83;71.66;102131.47;2021008;27;3585639;-74
2024/02/06 02:24:45;;;;;;;;;25.33;23.33;;;;;9.83;71.60;102128.84;2017727;28;3592999;-74
2024/02/06 02:25:58;;;;;;;;;25.40;22.60;;;;;9.83;71.76;102127.06;2043360;28;3582896;-74
2024/02/06 02:27:09;;;;;;;;;27.33;25.33;;;;;9.82;71.77;102120.06;1996378;28;3592975;-74
2024/02/06 02:28:21;;;;;;;;;30.00;23.00;;;;;9.83;71.83;102127.06;2023378;28;3602377;-74
2024/02/06 02:29:35;;;;;;;;;27.67;22.67;;;;;9.82;71.80;102127.97;2000127;28;3596130;-74
2024/02/06 02:30:45;;;;;;;;;26.00;24.00;;;;;9.83;71.53;102126.22;1992329;28;2853430;-74
2024/02/06 02:31:58;;;;;;;;;24.00;21.00;;;;;9.83;71.89;102116.56;2004006;28;3586647;-74
2024/02/06 02:33:09;;;;;;;;;23.00;21.33;;;;;9.82;71.42;102114.81;1994847;28;3571057;-74
2024/02/06 02:34:21;;;;;;;;;25.33;21.00;;;;;9.81;71.54;102113.06;2030809;28;3578357;-74
2024/02/06 02:35:33;;;;;;;;;29.40;25.00;;;;;9.80;71.68;102113.97;2039548;27;3589801;-74
2024/02/06 02:36:45;;;;;;;;;27.67;23.00;;;;;9.81;71.77;102112.19;2022320;27;3592295;-74
2024/02/06 02:37:57;;;;;;;;;30.00;23.40;;;;;9.80;71.49;102108.72;2029562;27;3609561;-74
2024/02/06 02:39:09;;;;;;;;;27.00;22.67;;;;;9.81;71.69;102113.06;2017638;27;3585644;-74
2024/02/06 02:40:21;;;;;;;;;22.33;22.00;;;;;9.82;71.59;102112.19;2036569;27;3573148;-74
2024/02/06 02:41:33;;;;;;;;;28.33;23.00;;;;;9.82;71.89;102109.56;2039546;27;3589830;-74
2024/02/06 02:42:44;;;;;;;;;24.00;19.33;;;;;9.83;71.74;102100.78;2048340;27;3581492;-74
2024/02/06 02:43:57;;;;;;;;;22.00;21.80;;;;;9.82;71.66;102106.06;2045680;27;3581449;-74
2024/02/06 02:45:08;;;;;;;;;26.67;20.00;;;;;9.81;71.68;102099.94;2022995;28;3594012;-74
2024/02/06 02:46:20;;;;;;;;;26.33;21.00;;;;;9.83;71.57;102098.16;2044840;27;3579410;-74
2024/02/06 02:47:32;;;;;;;;;24.60;21.20;;;;;9.82;71.70;102104.31;2036387;27;3585680;-74
2024/02/06 02:48:44;;;;;;;;;26.67;20.33;;;;;9.83;71.60;102100.78;2017609;27;3577316;-74
2024/02/06 02:49:56;;;;;;;;;29.67;23.33;;;;;9.83;71.67;102094.69;2039956;28;3589864;-74
2024/02/06 02:51:08;;;;;;;;;25.00;21.33;;;;;9.83;71.58;102098.16;2031829;28;3577311;-74
2024/02/06 02:52:20;;;;;;;;;26.00;22.33;;;;;9.84;71.67;102086.78;2039740;27;3579398;-74
2024/02/06 02:53:32;;;;;;;;;21.67;19.33;;;;;9.84;71.64;102085.91;2039604;28;3563762;-74
2024/02/06 02:54:43;;;;;;;;;25.80;21.40;;;;;9.84;71.97;102092.03;2052066;27;3588748;-74
2024/02/06 02:55:55;;;;;;;;;38.40;27.00;;;;;9.84;71.80;102092.03;2030008;27;3601267;-74
2024/02/06 02:57:07;;;;;;;;;25.60;21.20;;;;;9.84;71.57;102085.91;2031964;27;1835751;-74
2024/02/06 02:58:19;;;;;;;;;28.67;25.00;;;;;9.83;71.77;102079.78;2017006;28;3588761;-74
2024/02/06 02:59:31;;;;;;;;;23.40;20.60;;;;;9.83;71.83;102082.41;2041762;27;3574206;-74
2024/02/06 03:00:43;;;;;;;;;28.67;24.67;;;;;9.84;71.74;102083.28;2017308;28;3595051;-74
2024/02/06 03:01:54;;;;;;;;;28.67;23.33;;;;;9.83;72.08;102082.41;2037291;28;3588777;-74
2024/02/06 03:03:07;;;;;;;;;23.60;22.20;;;;;9.85;71.56;102092.94;2039051;28;3578372;-75
2024/02/06 03:04:18;;;;;;;;;24.60;21.40;;;;;9.84;71.56;102083.28;2034795;27;3576252;-74
2024/02/06 03:05:30;;;;;;;;;29.80;24.00;;;;;9.85;71.78;102082.41;2050607;27;3602307;-74
2024/02/06 03:06:44;;;;;;;;;25.33;20.33;;;;;9.82;71.76;102080.69;2016724;28;3586710;-74
2024/02/06 03:07:55;;;;;;;;;31.33;24.67;;;;;9.82;71.83;102082.44;2024181;27;3603352;-74
2024/02/06 03:09:08;;;;;;;;;24.00;23.80;;;;;9.82;72.00;102071.94;2030383;27;3583537;-74
2024/02/06 03:10:20;;;;;;;;;26.60;25.20;;;;;9.81;72.08;102080.69;2015669;27;3593378;-74
2024/02/06 03:11:31;;;;;;;;;34.40;29.00;;;;;9.79;71.84;102071.06;2023950;27;3609558;-74
2024/02/06 03:12:43;;;;;;;;;29.00;24.67;;;;;9.80;71.61;102074.59;2016172;27;3582587;-75
2024/02/06 03:13:55;;;;;;;;;29.00;24.00;;;;;9.79;72.26;102067.56;2043929;27;3584645;-74
2024/02/06 03:15:07;;;;;;;;;26.40;22.80;;;;;9.81;71.84;102076.31;2029036;27;3599209;-74
2024/02/06 03:16:19;;;;;;;;;28.00;25.00;;;;;9.80;71.59;102069.34;2007279;27;3591886;-74
2024/02/06 03:17:31;;;;;;;;;27.40;26.00;;;;;9.79;71.88;102070.19;2045674;28;3586650;-74
2024/02/06 03:18:43;;;;;;;;;29.00;26.00;;;;;9.78;71.87;102069.31;2017364;28;3588784;-74
2024/02/06 03:19:55;;;;;;;;;29.60;26.40;;;;;9.78;71.81;102071.94;2044182;27;3593956;-74
2024/02/06 03:21:07;;;;;;;;;26.67;24.00;;;;;9.79;71.51;102071.06;2007400;28;3585724;-74
2024/02/06 03:22:20;;;;;;;;;22.50;16.50;;;;;9.80;71.73;102064.09;2026768;28;2825250;-74
2024/02/06 03:23:30;;;;;;;;;27.00;26.00;;;;;9.79;71.86;102062.31;2000698;28;2846089;-74
2024/02/06 03:24:42;;;;;;;;;24.80;23.00;;;;;9.79;71.75;102059.69;2018604;28;3580397;-74
2024/02/06 03:25:54;;;;;;;;;28.33;24.67;;;;;9.78;71.84;102058.81;2040582;27;3587768;-74
2024/02/06 03:27:07;;;;;;;;;25.40;22.00;;;;;9.78;72.08;102045.69;2021083;28;3591864;-74
2024/02/06 03:28:18;;;;;;;;;30.00;23.00;;;;;9.80;72.00;102053.56;1998600;28;2853369;-74
2024/02/06 03:29:29;;;;;;;;;29.67;24.33;;;;;9.81;71.77;102050.03;1999323;28;3595015;-74
2024/02/06 03:30:44;;;;;;;;;29.00;25.33;;;;;9.82;72.25;102046.56;2016101;27;3593970;-75
2024/02/06 03:31:54;;;;;;;;;24.50;23.50;;;;;9.83;72.07;102042.19;2006244;27;2850269;-74
2024/02/06 03:33:06;;;;;;;;;30.33;24.67;;;;;9.83;72.01;102044.81;2023840;27;3588761;-74
2024/02/06 03:34:18;;;;;;;;;26.00;23.40;;;;;9.83;72.17;102045.66;2050164;27;3584567;-74
2024/02/06 03:35:31;;;;;;;;;22.40;21.00;;;;;9.85;72.06;102048.28;2028137;27;3566880;-74
2024/02/06 03:36:42;;;;;;;;;23.33;19.33;;;;;9.83;72.09;102040.41;2035219;27;3583557;-74
2024/02/06 03:37:54;;;;;;;;;25.60;24.00;;;;;9.85;71.85;102037.78;2048858;27;3588741;-74
2024/02/06 03:39:08;;;;;;;;;23.80;22.00;;;;;9.85;71.98;102032.53;2030373;27;3578369;-74
2024/02/06 03:40:19;;;;;;;;;26.00;22.00;;;;;9.84;72.28;102023.78;2033411;27;2855366;-74
2024/02/06 03:41:30;;;;;;;;;25.80;22.00;;;;;9.85;72.31;102030.75;2004888;27;3589795;-74
2024/02/06 03:42:43;;;;;;;;;22.33;18.67;;;;;9.84;72.04;102023.78;2014817;27;3570044;-74
2024/02/06 03:43:54;;;;;;;;;24.60;23.40;;;;;9.85;71.86;102022.88;2030081;27;3593271;-74
2024/02/06 03:45:06;;;;;;;;;26.60;23.40;;;;;9.85;71.84;102022.88;2021508;27;3586715;-74
2024/02/06 03:46:18;;;;;;;;;25.20;23.60;;;;;9.86;71.81;102021.13;2013943;28;3582862;-75
2024/02/06 03:47:30;;;;;;;;;30.00;22.67;;;;;9.85;72.01;102030.75;2040332;27;3599188;-74
2024/02/06 03:48:42;;;;;;;;;27.00;23.33;;;;;9.86;72.09;102029.88;2015489;27;3595019;-74
2024/02/06 03:49:54;;;;;;;;;33.33;22.67;;;;;9.86;71.94;102021.13;2024601;27;3603382;-74
2024/02/06 03:51:06;;;;;;;;;25.67;23.67;;;;;9.87;71.96;102026.38;2018778;27;3579792;-74
2024/02/06 03:52:18;;;;;;;;;28.67;25.67;;;;;9.85;71.74;102017.63;2040325;28;3577343;-74
2024/02/06 03:53:31;;;;;;;;;28.00;22.67;;;;;9.85;71.90;102028.13;2036693;28;3581510;-74
2024/02/06 03:54:43;;;;;;;;;30.67;24.00;;;;;9.86;72.33;102018.50;1999087;28;3578341;-74
2024/02/06 03:55:55;;;;;;;;;31.33;25.67;;;;;9.86;71.94;102021.13;2042345;27;3588801;-74
2024/02/06 03:57:07;;;;;;;;;29.00;24.00;;;;;9.87;71.91;102034.25;2014692;28;3599194;-74
2024/02/06 03:58:18;;;;;;;;;26.60;22.80;;;;;9.87;72.09;102015.88;2001276;28;3594979;-74
2024/02/06 03:59:30;;;;;;;;;25.67;22.00;;;;;9.86;71.73;102024.63;2007869;28;3579414;-74
2024/02/06 04:00:49;;;;;;;;;25.00;23.67;;;;;9.86;71.79;102016.75;2036050;28;3585683;-74
2024/02/06 04:01:59;;;;;;;;;24.00;22.50;;;;;9.86;71.92;102029.88;2022621;27;2841928;-74
2024/02/06 04:03:11;;;;;;;;;28.80;25.00;;;;;9.86;71.83;102022.00;2045011;27;3581482;-74
2024/02/06 04:04:23;;;;;;;;;24.00;20.00;;;;;9.85;72.20;102022.88;2040545;28;3584126;-74
2024/02/06 04:05:35;;;;;;;;;22.00;21.80;;;;;9.85;72.18;102017.63;2026174;27;3575226;-74
2024/02/06 04:06:48;;;;;;;;;25.00;24.67;;;;;9.86;72.01;102016.75;2044414;27;3594056;-74
2024/02/06 04:07:59;;;;;;;;;28.33;24.00;;;;;9.87;71.95;102021.13;1998641;28;3599205;-75
2024/02/06 04:09:11;;;;;;;;;27.00;22.60;;;;;9.85;71.79;102020.25;2014449;28;3588762;-74
2024/02/06 04:10:23;;;;;;;;;21.80;20.20;;;;;9.86;72.19;102018.50;2012865;28;3568944;-74
2024/02/06 04:11:35;;;;;;;;;28.00;23.20;;;;;9.86;72.00;102015.88;2046711;27;3590833;-74
2024/02/06 04:12:47;;;;;;;;;24.67;21.00;;;;;9.86;72.05;102021.13;2012899;27;3574199;-74
2024/02/06 04:13:59;;;;;;;;;25.00;23.60;;;;;9.86;72.29;102024.63;2045505;27;3587723;-74
2024/02/06 04:15:11;;;;;;;;;29.67;25.67;;;;;9.87;72.30;102026.38;2018463;27;3584598;-74
2024/02/06 04:16:23;;;;;;;;;26.33;23.00;;;;;9.88;72.10;102020.22;2021718;27;3576361;-74
2024/02/06 04:17:35;;;;;;;;;25.40;22.20;;;;;9.89;72.39;102024.59;2041081;28;3588748;-74
2024/02/06 04:18:47;;;;;;;;;21.20;19.60;;;;;9.88;72.19;102020.22;2007849;28;3554394;-74
2024/02/06 04:19:59;;;;;;;;;27.60;23.00;;;;;9.90;72.12;102018.44;2037948;28;3597059;-74
2024/02/06 04:21:10;;;;;;;;;29.33;23.67;;;;;9.90;72.04;102010.56;2011576;28;3601289;-74
2024/02/06 04:22:22;;;;;;;;;27.00;21.60;;;;;9.92;72.05;102017.56;2021523;27;3586670;-74
2024/02/06 04:23:34;;;;;;;;;22.67;20.33;;;;;9.92;71.82;102017.56;2017286;28;3567956;-74
2024/02/06 04:24:47;;;;;;;;;24.00;21.67;;;;;9.92;72.03;102009.69;2034829;28;3577327;-75
2024/02/06 04:25:58;;;;;;;;;25.00;22.00;;;;;9.89;71.94;102014.09;2024373;28;3582917;-74
2024/02/06 04:27:10;;;;;;;;;26.67;23.67;;;;;9.89;72.05;102011.47;2039958;27;3577303;-74
2024/02/06 04:28:22;;;;;;;;;24.00;24.00;;;;;9.90;72.14;102007.94;2046297;28;3582504;-74
2024/02/06 04:29:34;;;;;;;;;32.20;24.20;;;;;9.90;72.22;102005.31;2049747;27;3609625;-74
2024/02/06 04:30:46;;;;;;;;;29.67;24.33;;;;;9.90;72.14;102007.94;2021313;27;3592948;-74
2024/02/06 04:31:58;;;;;;;;;29.67;23.67;;;;;9.92;72.22;102005.31;2031240;28;3586804;-73
2024/02/06 04:33:10;;;;;;;;;26.40;24.20;;;;;9.93;72.03;102006.16;2045102;28;3575188;-74
2024/02/06 04:34:22;;;;;;;;;26.60;24.00;;;;;9.93;71.91;102006.16;2046543;27;3588757;-74
2024/02/06 04:35:34;;;;;;;;;22.67;22.33;;;;;9.93;71.95;102007.03;2010025;28;3578360;-74
2024/02/06 04:36:45;;;;;;;;;28.40;23.40;;;;;9.93;72.31;102003.53;2032673;27;3587744;-74
2024/02/06 04:37:57;;;;;;;;;22.00;16.00;;;;;9.92;72.17;102007.06;2024188;27;3547524;-74
2024/02/06 04:39:10;;;;;;;;;25.40;20.40;;;;;9.92;72.44;102000.06;2044098;27;3586639;-74
2024/02/06 04:40:21;;;;;;;;;28.50;24.50;;;;;9.93;72.26;102000.91;2005882;27;2850206;-74
2024/02/06 04:41:36;;;;;;;;;27.60;22.80;;;;;9.93;72.22;102008.78;2032333;27;3585687;-74
2024/02/06 04:42:47;;;;;;;;;29.67;23.33;;;;;9.95;71.90;102014.94;2006502;27;3592916;-74
2024/02/06 04:43:59;;;;;;;;;27.20;24.00;;;;;9.93;72.08;102001.78;2052500;27;3597126;-74
2024/02/06 04:45:11;;;;;;;;;24.60;22.60;;;;;9.94;71.94;102010.53;2018661;28;3576230;-74
2024/02/06 04:46:23;;;;;;;;;28.60;24.40;;;;;9.95;72.30;102014.94;2040354;28;3581489;-74
2024/02/06 04:47:35;;;;;;;;;24.67;21.00;;;;;9.94;72.17;102008.78;2017120;28;3587764;-74
2024/02/06 04:48:47;;;;;;;;;31.67;23.33;;;;;9.95;72.29;102009.66;2035968;27;3612059;-74
2024/02/06 04:49:58;;;;;;;;;24.00;21.00;;;;;9.94;72.16;102011.41;2025206;27;3570051;-74
2024/02/06 04:51:10;;;;;;;;;25.67;23.00;;;;;9.96;72.01;102014.03;2047617;27;3580446;-74
2024/02/06 04:52:22;;;;;;;;;25.67;22.00;;;;;9.96;71.91;102011.41;2043070;27;3592284;-74
2024/02/06 04:53:34;;;;;;;;;25.40;23.00;;;;;9.94;72.34;102003.53;2047064;27;3594010;-74
2024/02/06 04:54:46;;;;;;;;;21.33;20.33;;;;;9.96;72.01;102014.03;2026073;27;3577315;-74
2024/02/06 04:55:59;;;;;;;;;29.40;21.80;;;;;9.97;72.22;102007.91;2053855;27;3609601;-74
2024/02/06 04:57:12;;;;;;;;;23.80;20.60;;;;;9.96;71.89;102012.28;2025055;27;2843960;-74
2024/02/06 04:58:24;;;;;;;;;24.67;22.67;;;;;9.97;72.03;102002.66;2017053;28;3588766;-74
2024/02/06 04:59:35;;;;;;;;;21.50;20.00;;;;;9.99;72.31;102006.13;2023428;28;2822546;-74
2024/02/06 05:00:47;;;;;;;;;23.00;20.20;;;;;10.00;72.44;102005.25;2016113;28;3578704;-74
2024/02/06 05:01:59;;;;;;;;;27.00;24.20;;;;;9.99;72.26;102001.75;2049515;27;3583567;-74
2024/02/06 05:03:10;;;;;;;;;19.33;17.00;;;;;10.00;72.19;102006.09;2011570;28;3572108;-74
2024/02/06 05:04:23;;;;;;;;;24.67;22.67;;;;;10.01;72.26;102005.22;2039064;28;3591914;-74
2024/02/06 05:05:34;;;;;;;;;25.50;22.00;;;;;10.02;72.09;102000.84;2025511;27;2850293;-74
2024/02/06 05:06:47;;;;;;;;;24.00;20.80;;;;;10.02;71.92;101998.22;2019794;28;3578325;-74
2024/02/06 05:07:59;;;;;;;;;23.67;21.67;;;;;10.02;72.13;102000.84;2027650;27;2846093;-74
2024/02/06 05:09:09;;;;;;;;;23.00;22.00;;;;;10.02;71.92;101999.06;2027475;27;2840863;-74
2024/02/06 05:10:21;;;;;;;;;24.40;22.40;;;;;10.03;72.03;101997.31;2022473;28;3583551;-74
2024/02/06 05:11:33;;;;;;;;;26.33;24.33;;;;;10.05;72.15;101989.44;2042822;27;3584701;-74
2024/02/06 05:12:45;;;;;;;;;25.40;22.00;;;;;10.05;72.05;101995.53;2021390;27;3581457;-74
2024/02/06 05:13:57;;;;;;;;;21.20;19.00;;;;;10.05;72.08;101994.69;2045557;27;3562700;-74
2024/02/06 05:15:09;;;;;;;;;24.00;23.00;;;;;10.05;72.00;101990.28;2030140;28;3583577;-74
2024/02/06 05:16:21;;;;;;;;;23.00;19.67;;;;;10.05;71.69;101990.28;2024084;28;3571058;-74
2024/02/06 05:17:32;;;;;;;;;26.33;23.00;;;;;10.06;72.15;101986.78;2041873;27;3599203;-74
2024/02/06 05:18:44;;;;;;;;;29.00;21.60;;;;;10.06;71.99;101991.16;2047275;27;3577267;-74
2024/02/06 05:19:57;;;;;;;;;23.33;20.33;;;;;10.06;71.92;101992.03;2042428;28;3576300;-74
2024/02/06 05:21:08;;;;;;;;;23.67;23.00;;;;;10.07;72.13;101993.78;2029918;28;3578380;-74
2024/02/06 05:22:20;;;;;;;;;25.20;22.60;;;;;10.06;72.13;101989.41;2042137;28;3583518;-74
2024/02/06 05:23:32;;;;;;;;;25.20;21.20;;;;;10.07;72.06;101983.28;2021172;27;3583542;-74